createdAt,value
2018-08-09T00:00:19.862Z,1001.60
2018-08-09T00:01:19.882Z,1001.60
2018-08-09T00:02:19.911Z,1001.63
2018-08-09T00:03:19.931Z,1001.62
2018-08-09T00:04:19.951Z,1001.61
2018-08-09T00:05:19.970Z,1001.60
2018-08-09T00:06:20.041Z,1001.64
2018-08-09T00:07:20.021Z,1001.61
2018-08-09T00:08:20.081Z,1001.67
2018-08-09T00:09:20.065Z,1001.69
2018-08-09T00:10:20.081Z,1001.71
2018-08-09T00:11:20.109Z,1001.74
2018-08-09T00:12:20.125Z,1001.73
2018-08-09T00:13:20.150Z,1001.72
2018-08-09T00:14:20.168Z,1001.76
2018-08-09T00:15:20.191Z,1001.77
2018-08-09T00:16:20.214Z,1001.78
2018-08-09T00:17:20.234Z,1001.74
2018-08-09T00:18:20.258Z,1001.72
2018-08-09T00:19:20.359Z,1001.72
2018-08-09T00:20:20.299Z,1001.69
2018-08-09T00:21:20.322Z,1001.76
2018-08-09T00:22:20.343Z,1001.74
2018-08-09T00:23:20.508Z,1001.74
2018-08-09T00:24:20.386Z,1001.75
2018-08-09T00:25:20.409Z,1001.70
2018-08-09T00:26:20.434Z,1001.70
2018-08-09T00:27:20.471Z,1001.68
2018-08-09T00:28:20.472Z,1001.65
2018-08-09T00:29:20.496Z,1001.66
2018-08-09T00:30:20.518Z,1001.65
2018-08-09T00:31:20.539Z,1001.68
2018-08-09T00:32:20.561Z,1001.66
2018-08-09T00:33:20.585Z,1001.68
2018-08-09T00:34:20.609Z,1001.62
2018-08-09T00:35:20.625Z,1001.65
2018-08-09T00:36:20.647Z,1001.64
2018-08-09T00:37:20.670Z,1001.59
2018-08-09T00:38:20.704Z,1001.53
2018-08-09T00:39:20.716Z,1001.54
2018-08-09T00:40:20.736Z,1001.50
2018-08-09T00:41:20.757Z,1001.50
2018-08-09T00:42:20.794Z,1001.52
2018-08-09T00:43:20.803Z,1001.53
2018-08-09T00:44:20.858Z,1001.53
2018-08-09T00:45:20.843Z,1001.57
2018-08-09T00:46:20.868Z,1001.59
2018-08-09T00:47:20.930Z,1001.57
2018-08-09T00:48:20.949Z,1001.56
2018-08-09T00:49:20.929Z,1001.53
2018-08-09T00:50:20.951Z,1001.54
2018-08-09T00:51:20.974Z,1001.51
2018-08-09T00:52:20.995Z,1001.51
2018-08-09T00:53:21.014Z,1001.51
2018-08-09T00:54:21.050Z,1001.51
2018-08-09T00:55:21.060Z,1001.51
2018-08-09T00:56:21.097Z,1001.50
2018-08-09T00:57:21.102Z,1001.49
2018-08-09T00:58:21.138Z,1001.45
2018-08-09T00:59:21.155Z,1001.46
2018-08-09T01:00:21.170Z,1001.41
2018-08-09T01:01:21.189Z,1001.42
2018-08-09T01:02:21.217Z,1001.46
2018-08-09T01:03:21.242Z,1001.47
2018-08-09T01:04:21.255Z,1001.48
2018-08-09T01:05:21.278Z,1001.46
2018-08-09T01:06:21.304Z,1001.47
2018-08-09T01:07:21.321Z,1001.45
2018-08-09T01:08:21.341Z,1001.43
2018-08-09T01:09:21.366Z,1001.42
2018-08-09T01:10:21.570Z,1001.42
2018-08-09T01:11:21.409Z,1001.42
2018-08-09T01:12:21.437Z,1001.38
2018-08-09T01:13:21.453Z,1001.38
2018-08-09T01:14:21.476Z,1001.42
2018-08-09T01:15:21.507Z,1001.45
2018-08-09T01:16:21.521Z,1001.47
2018-08-09T01:17:21.540Z,1001.48
2018-08-09T01:18:21.566Z,1001.46
2018-08-09T01:19:21.590Z,1001.45
2018-08-09T01:20:21.612Z,1001.43
2018-08-09T01:21:21.627Z,1001.46
2018-08-09T01:22:21.654Z,1001.45
2018-08-09T01:23:21.674Z,1001.47
2018-08-09T01:24:21.695Z,1001.41
2018-08-09T01:25:21.714Z,1001.46
2018-08-09T01:26:21.741Z,1001.45
2018-08-09T01:27:21.761Z,1001.45
2018-08-09T01:28:21.783Z,1001.43
2018-08-09T01:29:21.803Z,1001.42
2018-08-09T01:30:21.856Z,1001.43
2018-08-09T01:31:21.847Z,1001.45
2018-08-09T01:32:21.866Z,1001.47
2018-08-09T01:33:21.892Z,1001.48
2018-08-09T01:34:21.912Z,1001.49
2018-08-09T01:35:21.931Z,1001.48
2018-08-09T01:36:21.965Z,1001.50
2018-08-09T01:37:21.975Z,1001.47
2018-08-09T01:38:21.997Z,1001.46
2018-08-09T01:39:22.023Z,1001.52
2018-08-09T01:40:22.041Z,1001.49
2018-08-09T01:41:22.067Z,1001.49
2018-08-09T01:42:22.081Z,1001.50
2018-08-09T01:43:22.103Z,1001.49
2018-08-09T01:44:22.128Z,1001.49
2018-08-09T01:45:22.148Z,1001.48
2018-08-09T01:46:22.171Z,1001.49
2018-08-09T01:47:22.359Z,1001.51
2018-08-09T01:48:22.215Z,1001.53
2018-08-09T01:49:22.237Z,1001.53
2018-08-09T01:50:22.261Z,1001.52
2018-08-09T01:51:22.280Z,1001.52
2018-08-09T01:52:22.302Z,1001.52
2018-08-09T01:53:22.324Z,1001.53
2018-08-09T01:54:22.343Z,1001.46
2018-08-09T01:55:22.366Z,1001.47
2018-08-09T01:56:22.386Z,1001.48
2018-08-09T01:57:22.414Z,1001.44
2018-08-09T01:58:22.427Z,1001.43
2018-08-09T01:59:22.450Z,1001.42
2018-08-09T02:00:22.473Z,1001.41
2018-08-09T02:01:22.504Z,1001.44
2018-08-09T02:02:22.577Z,1001.41
2018-08-09T02:03:22.536Z,1001.39
2018-08-09T02:04:22.570Z,1001.39
2018-08-09T02:05:22.581Z,1001.40
2018-08-09T02:06:22.609Z,1001.38
2018-08-09T02:07:22.625Z,1001.43
2018-08-09T02:08:22.645Z,1001.44
2018-08-09T02:09:22.667Z,1001.47
2018-08-09T02:10:22.687Z,1001.43
2018-08-09T02:11:22.708Z,1001.44
2018-08-09T02:12:22.729Z,1001.46
2018-08-09T02:13:22.752Z,1001.46
2018-08-09T02:14:22.774Z,1001.47
2018-08-09T02:15:22.793Z,1001.43
2018-08-09T02:16:22.957Z,1001.44
2018-08-09T02:17:22.839Z,1001.45
2018-08-09T02:18:22.860Z,1001.45
2018-08-09T02:19:22.881Z,1001.49
2018-08-09T02:20:22.901Z,1001.47
2018-08-09T02:21:22.926Z,1001.46
2018-08-09T02:22:22.947Z,1001.44
2018-08-09T02:23:22.966Z,1001.46
2018-08-09T02:24:22.985Z,1001.47
2018-08-09T02:25:23.015Z,1001.46
2018-08-09T02:26:23.030Z,1001.45
2018-08-09T02:27:23.050Z,1001.46
2018-08-09T02:28:23.075Z,1001.46
2018-08-09T02:29:23.094Z,1001.45
2018-08-09T02:30:23.115Z,1001.41
2018-08-09T02:31:23.144Z,1001.47
2018-08-09T02:32:23.161Z,1001.47
2018-08-09T02:33:23.182Z,1001.49
2018-08-09T02:34:23.200Z,1001.51
2018-08-09T02:35:23.220Z,1001.56
2018-08-09T02:36:23.242Z,1001.53
2018-08-09T02:37:23.267Z,1001.52
2018-08-09T02:38:23.285Z,1001.56
2018-08-09T02:39:23.311Z,1001.55
2018-08-09T02:40:23.327Z,1001.52
2018-08-09T02:41:23.349Z,1001.51
2018-08-09T02:42:23.380Z,1001.51
2018-08-09T02:43:23.392Z,1001.47
2018-08-09T02:44:23.411Z,1001.46
2018-08-09T02:45:23.434Z,1001.44
2018-08-09T02:46:23.456Z,1001.45
2018-08-09T02:47:23.476Z,1001.43
2018-08-09T02:48:23.497Z,1001.39
2018-08-09T02:49:23.517Z,1001.41
2018-08-09T02:50:23.539Z,1001.44
2018-08-09T02:51:23.559Z,1001.38
2018-08-09T02:52:23.587Z,1001.43
2018-08-09T02:53:23.609Z,1001.38
2018-08-09T02:54:23.626Z,1001.37
2018-08-09T02:55:23.647Z,1001.37
2018-08-09T02:56:23.667Z,1001.39
2018-08-09T02:57:23.690Z,1001.37
2018-08-09T02:58:23.719Z,1001.42
2018-08-09T02:59:23.735Z,1001.39
2018-08-09T03:00:23.760Z,1001.36
2018-08-09T03:01:23.771Z,1001.35
2018-08-09T03:02:23.798Z,1001.34
2018-08-09T03:03:23.817Z,1001.34
2018-08-09T03:04:23.836Z,1001.32
2018-08-09T03:05:23.861Z,1001.27
2018-08-09T03:06:23.920Z,1001.27
2018-08-09T03:07:23.900Z,1001.28
2018-08-09T03:08:23.922Z,1001.30
2018-08-09T03:09:23.942Z,1001.31
2018-08-09T03:10:23.963Z,1001.30
2018-08-09T03:11:23.984Z,1001.25
2018-08-09T03:12:24.015Z,1001.27
2018-08-09T03:13:24.026Z,1001.26
2018-08-09T03:14:24.051Z,1001.26
2018-08-09T03:15:24.076Z,1001.28
2018-08-09T03:16:24.093Z,1001.29
2018-08-09T03:17:24.122Z,1001.30
2018-08-09T03:18:24.134Z,1001.30
2018-08-09T03:19:24.283Z,1001.32
2018-08-09T03:20:24.190Z,1001.31
2018-08-09T03:21:24.198Z,1001.32
2018-08-09T03:22:24.218Z,1001.27
2018-08-09T03:23:24.239Z,1001.31
2018-08-09T03:24:24.279Z,1001.30
2018-08-09T03:25:24.282Z,1001.23
2018-08-09T03:26:24.305Z,1001.25
2018-08-09T03:27:24.329Z,1001.25
2018-08-09T03:28:24.344Z,1001.25
2018-08-09T03:29:24.375Z,1001.22
2018-08-09T03:30:24.387Z,1001.27
2018-08-09T03:31:24.409Z,1001.23
2018-08-09T03:32:24.429Z,1001.29
2018-08-09T03:33:24.452Z,1001.25
2018-08-09T03:34:24.486Z,1001.26
2018-08-09T03:35:24.491Z,1001.29
2018-08-09T03:36:24.520Z,1001.35
2018-08-09T03:37:24.541Z,1001.38
2018-08-09T03:38:24.556Z,1001.36
2018-08-09T03:39:24.577Z,1001.38
2018-08-09T03:40:24.600Z,1001.40
2018-08-09T03:41:24.619Z,1001.41
2018-08-09T03:42:24.640Z,1001.43
2018-08-09T03:43:24.661Z,1001.44
2018-08-09T03:44:24.687Z,1001.43
2018-08-09T03:45:24.720Z,1001.44
2018-08-09T03:46:24.724Z,1001.44
2018-08-09T03:47:24.748Z,1001.46
2018-08-09T03:48:24.769Z,1001.42
2018-08-09T03:49:24.791Z,1001.41
2018-08-09T03:50:24.807Z,1001.41
2018-08-09T03:51:24.829Z,1001.37
2018-08-09T03:52:24.850Z,1001.38
2018-08-09T03:53:24.874Z,1001.37
2018-08-09T03:54:24.896Z,1001.35
2018-08-09T03:55:24.918Z,1001.36
2018-08-09T03:56:24.936Z,1001.38
2018-08-09T03:57:24.958Z,1001.32
2018-08-09T03:58:24.977Z,1001.30
2018-08-09T03:59:24.999Z,1001.29
2018-08-09T04:00:25.041Z,1001.27
2018-08-09T04:01:25.043Z,1001.29
2018-08-09T04:02:25.066Z,1001.29
2018-08-09T04:03:25.087Z,1001.29
2018-08-09T04:04:25.132Z,1001.34
2018-08-09T04:05:25.127Z,1001.32
2018-08-09T04:06:25.146Z,1001.34
2018-08-09T04:07:25.169Z,1001.33
2018-08-09T04:08:25.192Z,1001.35
2018-08-09T04:09:25.233Z,1001.36
2018-08-09T04:10:25.245Z,1001.35
2018-08-09T04:11:25.255Z,1001.37
2018-08-09T04:12:25.282Z,1001.38
2018-08-09T04:13:25.296Z,1001.36
2018-08-09T04:14:25.320Z,1001.37
2018-08-09T04:15:25.364Z,1001.31
2018-08-09T04:16:25.360Z,1001.33
2018-08-09T04:17:25.379Z,1001.35
2018-08-09T04:18:25.399Z,1001.36
2018-08-09T04:19:25.438Z,1001.36
2018-08-09T04:20:25.483Z,1001.33
2018-08-09T04:21:25.474Z,1001.35
2018-08-09T04:22:25.490Z,1001.38
2018-08-09T04:23:25.510Z,1001.32
2018-08-09T04:24:25.532Z,1001.40
2018-08-09T04:25:25.551Z,1001.38
2018-08-09T04:26:25.579Z,1001.42
2018-08-09T04:27:25.594Z,1001.39
2018-08-09T04:28:25.613Z,1001.40
2018-08-09T04:29:25.651Z,1001.34
2018-08-09T04:30:25.684Z,1001.37
2018-08-09T04:31:25.679Z,1001.36
2018-08-09T04:32:25.699Z,1001.37
2018-08-09T04:33:25.725Z,1001.38
2018-08-09T04:34:25.744Z,1001.40
2018-08-09T04:35:25.774Z,1001.46
2018-08-09T04:36:25.786Z,1001.48
2018-08-09T04:37:25.805Z,1001.51
2018-08-09T04:38:25.828Z,1001.48
2018-08-09T04:39:25.849Z,1001.50
2018-08-09T04:40:25.870Z,1001.50
2018-08-09T04:41:25.896Z,1001.47
2018-08-09T04:42:25.912Z,1001.52
2018-08-09T04:43:25.940Z,1001.54
2018-08-09T04:44:25.972Z,1001.55
2018-08-09T04:45:25.975Z,1001.52
2018-08-09T04:46:25.999Z,1001.57
2018-08-09T04:47:26.024Z,1001.53
2018-08-09T04:48:26.042Z,1001.54
2018-08-09T04:49:26.080Z,1001.50
2018-08-09T04:50:26.093Z,1001.47
2018-08-09T04:51:26.109Z,1001.46
2018-08-09T04:52:26.130Z,1001.45
2018-08-09T04:53:26.150Z,1001.46
2018-08-09T04:54:26.180Z,1001.48
2018-08-09T04:55:26.191Z,1001.48
2018-08-09T04:56:26.213Z,1001.46
2018-08-09T04:57:26.244Z,1001.45
2018-08-09T04:58:26.302Z,1001.46
2018-08-09T04:59:26.280Z,1001.43
2018-08-09T05:00:26.301Z,1001.42
2018-08-09T05:01:26.323Z,1001.48
2018-08-09T05:02:26.344Z,1001.54
2018-08-09T05:03:26.368Z,1001.62
2018-08-09T05:04:26.388Z,1001.60
2018-08-09T05:05:26.411Z,1001.57
2018-08-09T05:06:26.431Z,1001.60
2018-08-09T05:07:26.458Z,1001.56
2018-08-09T05:08:26.477Z,1001.58
2018-08-09T05:09:26.509Z,1001.57
2018-08-09T05:10:26.633Z,1001.65
2018-08-09T05:11:26.548Z,1001.68
2018-08-09T05:12:26.567Z,1001.69
2018-08-09T05:13:26.588Z,1001.67
2018-08-09T05:14:26.756Z,1001.73
2018-08-09T05:15:26.632Z,1001.76
2018-08-09T05:16:26.665Z,1001.80
2018-08-09T05:17:26.688Z,1001.84
2018-08-09T05:18:26.703Z,1001.90
2018-08-09T05:19:26.723Z,1001.85
2018-08-09T05:20:26.747Z,1001.87
2018-08-09T05:21:26.780Z,1001.87
2018-08-09T05:22:26.801Z,1001.92
2018-08-09T05:23:26.825Z,1001.94
2018-08-09T05:24:26.849Z,1001.93
2018-08-09T05:25:26.867Z,1001.98
2018-08-09T05:26:26.941Z,1002.02
2018-08-09T05:27:26.913Z,1002.04
2018-08-09T05:28:26.939Z,1002.07
2018-08-09T05:29:26.972Z,1002.08
2018-08-09T05:30:26.984Z,1002.08
2018-08-09T05:31:27.012Z,1002.12
2018-08-09T05:32:27.036Z,1002.13
2018-08-09T05:33:27.060Z,1002.10
2018-08-09T05:34:27.086Z,1002.07
2018-08-09T05:35:27.154Z,1002.05
2018-08-09T05:36:27.132Z,1002.08
2018-08-09T05:37:27.158Z,1002.17
2018-08-09T05:38:27.183Z,1002.12
2018-08-09T05:39:27.206Z,1001.99
2018-08-09T05:40:27.230Z,1001.66
2018-08-09T05:41:27.261Z,1001.59
2018-08-09T05:42:27.282Z,1001.57
2018-08-09T05:43:27.305Z,1001.54
2018-08-09T05:44:27.330Z,1001.55
2018-08-09T05:45:27.358Z,1001.67
2018-08-09T05:46:27.385Z,1001.68
2018-08-09T05:47:27.405Z,1001.79
2018-08-09T05:48:27.426Z,1002.20
2018-08-09T05:49:27.451Z,1002.21
2018-08-09T05:50:27.485Z,1002.27
2018-08-09T05:51:27.501Z,1002.31
2018-08-09T05:52:27.527Z,1002.31
2018-08-09T05:53:27.549Z,1002.39
2018-08-09T05:54:27.573Z,1002.41
2018-08-09T05:55:27.599Z,1002.46
2018-08-09T05:56:27.624Z,1002.46
2018-08-09T05:57:27.652Z,1002.43
2018-08-09T05:58:27.700Z,1002.28
2018-08-09T05:59:27.702Z,1002.37
2018-08-09T06:00:27.729Z,1002.50
2018-08-09T06:01:27.752Z,1002.56
2018-08-09T06:02:27.774Z,1002.46
2018-08-09T06:03:27.798Z,1002.43
2018-08-09T06:04:27.829Z,1002.36
2018-08-09T06:05:27.853Z,1002.45
2018-08-09T06:06:27.893Z,1002.53
2018-08-09T06:07:27.906Z,1001.97
2018-08-09T06:08:27.931Z,1002.57
2018-08-09T06:09:27.960Z,1002.69
2018-08-09T06:10:27.980Z,1002.83
2018-08-09T06:11:28.007Z,1002.89
2018-08-09T06:12:28.033Z,1002.98
2018-08-09T06:13:28.145Z,1003.14
2018-08-09T06:14:28.089Z,1003.15
2018-08-09T06:15:28.119Z,1003.23
2018-08-09T06:16:28.138Z,1002.22
2018-08-09T06:17:28.164Z,1001.64
2018-08-09T06:18:28.196Z,1001.63
2018-08-09T06:19:28.222Z,1001.45
2018-08-09T06:20:28.244Z,1001.36
2018-08-09T06:21:28.272Z,1001.34
2018-08-09T06:22:28.303Z,1001.28
2018-08-09T06:23:28.326Z,1001.30
2018-08-09T06:24:28.353Z,1001.37
2018-08-09T06:25:28.379Z,1004.07
2018-08-09T06:26:28.516Z,1004.09
2018-08-09T06:27:28.430Z,1004.71
2018-08-09T06:28:28.458Z,1004.91
2018-08-09T06:29:28.482Z,1005.10
2018-08-09T06:30:28.511Z,1005.24
2018-08-09T06:31:28.536Z,1005.14
2018-08-09T06:32:28.559Z,1005.37
2018-08-09T06:33:28.650Z,1005.98
2018-08-09T06:34:28.617Z,1006.09
2018-08-09T06:35:28.641Z,1006.26
2018-08-09T06:36:28.676Z,1006.31
2018-08-09T06:37:28.715Z,1006.35
2018-08-09T06:38:28.721Z,1006.43
2018-08-09T06:39:28.745Z,1007.49
2018-08-09T06:40:28.774Z,1008.12
2018-08-09T06:41:28.803Z,1007.40
2018-08-09T06:42:28.827Z,1007.25
2018-08-09T06:43:28.853Z,1007.59
2018-08-09T06:44:28.884Z,1007.26
2018-08-09T06:45:28.909Z,1007.09
2018-08-09T06:46:28.940Z,1006.90
2018-08-09T06:47:28.987Z,1007.09
2018-08-09T06:48:28.990Z,1007.56
2018-08-09T06:49:29.021Z,1007.91
2018-08-09T06:50:29.049Z,1008.01
2018-08-09T06:51:29.076Z,1007.78
2018-08-09T06:52:29.109Z,1007.99
2018-08-09T06:53:29.132Z,1008.06
2018-08-09T06:54:29.168Z,1008.02
2018-08-09T06:55:29.186Z,1008.48
2018-08-09T06:56:29.211Z,1008.41
2018-08-09T06:57:29.244Z,1007.79
2018-08-09T06:58:29.269Z,1008.27
2018-08-09T06:59:29.296Z,1007.13
2018-08-09T07:00:29.325Z,1004.86
2018-08-09T07:01:29.358Z,1006.64
2018-08-09T07:02:29.380Z,1007.66
2018-08-09T07:03:29.412Z,1002.94
2018-08-09T07:04:29.443Z,1006.38
2018-08-09T07:05:29.465Z,1004.88
2018-08-09T07:06:29.493Z,1003.96
2018-08-09T07:07:29.523Z,1010.56
2018-08-09T07:08:29.550Z,1011.64
2018-08-09T07:09:29.576Z,1011.77
2018-08-09T07:10:29.603Z,1011.45
2018-08-09T07:11:29.641Z,1011.27
2018-08-09T07:12:29.657Z,1011.35
2018-08-09T07:13:29.685Z,1012.06
2018-08-09T07:14:29.715Z,1011.72
2018-08-09T07:15:29.742Z,1011.65
2018-08-09T07:16:29.768Z,1011.97
2018-08-09T07:17:29.805Z,1011.89
2018-08-09T07:18:29.825Z,1011.69
2018-08-09T07:19:29.864Z,1011.54
2018-08-09T07:20:30.017Z,1011.91
2018-08-09T07:21:29.922Z,1011.59
2018-08-09T07:22:29.941Z,1010.88
2018-08-09T07:23:29.971Z,1012.16
2018-08-09T07:24:29.999Z,1013.10
2018-08-09T07:25:30.026Z,1012.81
2018-08-09T07:26:30.064Z,1013.29
2018-08-09T07:27:30.085Z,1012.23
2018-08-09T07:28:30.125Z,1011.70
2018-08-09T07:29:30.141Z,1013.86
2018-08-09T07:30:30.180Z,1011.34
2018-08-09T07:31:30.200Z,1013.79
2018-08-09T07:32:30.232Z,1014.28
2018-08-09T07:33:30.271Z,1014.37
2018-08-09T07:34:30.319Z,1015.13
2018-08-09T07:35:30.319Z,1013.92
2018-08-09T07:36:30.387Z,1011.24
2018-08-09T07:37:30.388Z,1006.15
2018-08-09T07:38:30.408Z,1006.99
2018-08-09T07:39:30.515Z,1007.44
2018-08-09T07:40:30.460Z,1013.61
2018-08-09T07:41:30.492Z,1015.81
2018-08-09T07:42:30.516Z,1017.19
2018-08-09T07:43:30.578Z,1015.62
2018-08-09T07:44:30.585Z,1018.80
2018-08-09T07:45:30.608Z,1018.20
2018-08-09T07:46:30.631Z,1018.18
2018-08-09T07:47:30.667Z,1019.26
2018-08-09T07:48:30.758Z,1007.15
2018-08-09T07:49:30.721Z,1008.26
2018-08-09T07:50:30.749Z,1003.78
2018-08-09T07:51:30.779Z,1003.27
2018-08-09T07:52:30.806Z,1005.68
2018-08-09T07:53:30.844Z,1015.60
2018-08-09T07:54:30.860Z,1010.68
2018-08-09T07:55:30.892Z,1013.88
2018-08-09T07:56:30.918Z,1007.78
2018-08-09T07:57:30.974Z,1007.87
2018-08-09T07:58:30.988Z,1003.90
2018-08-09T07:59:31.000Z,1016.77
2018-08-09T08:00:31.033Z,1018.12
2018-08-09T08:01:31.066Z,1010.07
2018-08-09T08:02:31.087Z,1011.28
2018-08-09T08:03:31.121Z,1014.17
2018-08-09T08:04:31.142Z,1017.28
2018-08-09T08:05:31.169Z,1011.44
2018-08-09T08:06:31.204Z,1017.30
2018-08-09T08:07:31.229Z,1017.59
2018-08-09T08:08:31.301Z,1016.67
2018-08-09T08:09:31.293Z,1010.03
2018-08-09T08:10:31.313Z,1018.91
2018-08-09T08:11:31.337Z,1018.38
2018-08-09T08:12:31.366Z,1002.54
2018-08-09T08:13:31.394Z,1011.22
2018-08-09T08:14:31.448Z,1001.68
2018-08-09T08:15:31.449Z,1002.53
2018-08-09T08:16:31.547Z,1001.79
2018-08-09T08:17:31.503Z,1005.99
2018-08-09T08:18:31.535Z,1007.71
2018-08-09T08:19:31.561Z,1019.93
2018-08-09T08:20:31.588Z,1017.37
2018-08-09T08:21:31.621Z,1014.90
2018-08-09T08:22:31.646Z,1015.31
2018-08-09T08:23:31.671Z,1014.92
2018-08-09T08:24:31.698Z,1015.24
2018-08-09T08:25:31.733Z,1006.22
2018-08-09T08:26:31.755Z,1004.82
2018-08-09T08:27:31.786Z,1003.83
2018-08-09T08:28:31.811Z,1005.98
2018-08-09T08:29:31.837Z,1007.92
2018-08-09T08:30:31.865Z,1010.36
2018-08-09T08:31:31.895Z,1012.64
2018-08-09T08:32:31.921Z,1003.84
2018-08-09T08:33:31.947Z,1002.58
2018-08-09T08:34:32.010Z,1001.46
2018-08-09T08:35:32.009Z,1001.77
2018-08-09T08:36:32.031Z,1000.77
2018-08-09T08:37:32.059Z,1000.49
2018-08-09T08:38:32.085Z,1000.50
2018-08-09T08:39:32.108Z,1000.30
2018-08-09T08:40:32.138Z,1000.31
2018-08-09T08:41:32.219Z,1000.36
2018-08-09T08:42:32.188Z,1000.48
2018-08-09T08:43:32.220Z,1000.74
2018-08-09T08:44:32.240Z,1000.86
2018-08-09T08:45:32.267Z,1000.67
2018-08-09T08:46:32.296Z,1001.11
2018-08-09T08:47:32.331Z,1000.77
2018-08-09T08:48:32.346Z,1000.86
2018-08-09T08:49:32.374Z,1001.03
2018-08-09T08:50:32.399Z,1000.62
2018-08-09T08:51:32.426Z,1000.46
2018-08-09T08:52:32.454Z,1000.36
2018-08-09T08:53:32.489Z,1000.30
2018-08-09T08:54:32.504Z,1000.22
2018-08-09T08:55:32.532Z,1000.26
2018-08-09T08:56:32.558Z,1000.29
2018-08-09T08:57:32.591Z,1000.32
2018-08-09T08:58:32.614Z,1000.36
2018-08-09T08:59:32.635Z,1000.27
2018-08-09T09:00:32.663Z,1000.41
2018-08-09T09:01:32.688Z,1000.51
2018-08-09T09:02:32.713Z,1000.48
2018-08-09T09:03:32.747Z,1000.63
2018-08-09T09:04:32.839Z,1000.82
2018-08-09T09:05:32.795Z,1000.59
2018-08-09T09:06:32.823Z,1000.55
2018-08-09T09:07:32.847Z,1000.65
2018-08-09T09:08:32.871Z,1000.56
2018-08-09T09:09:32.898Z,1000.54
2018-08-09T09:10:32.923Z,1000.40
2018-08-09T09:11:32.953Z,1000.26
2018-08-09T09:12:32.974Z,1000.22
2018-08-09T09:13:33.005Z,1000.15
2018-08-09T09:14:33.034Z,1000.12
2018-08-09T09:15:33.052Z,1000.22
2018-08-09T09:16:33.082Z,1000.30
2018-08-09T09:17:33.106Z,1000.37
2018-08-09T09:18:33.137Z,1000.56
2018-08-09T09:19:33.161Z,1000.70
2018-08-09T09:20:33.184Z,1000.65
2018-08-09T09:21:33.213Z,1000.52
2018-08-09T09:22:33.237Z,1000.65
2018-08-09T09:23:33.265Z,1000.80
2018-08-09T09:24:33.287Z,1000.78
2018-08-09T09:25:33.316Z,1000.69
2018-08-09T09:26:33.341Z,1000.46
2018-08-09T09:27:33.366Z,1000.53
2018-08-09T09:28:33.393Z,1000.50
2018-08-09T09:29:33.428Z,1000.48
2018-08-09T09:30:33.446Z,1000.47
2018-08-09T09:31:33.509Z,1000.40
2018-08-09T09:32:33.498Z,1000.34
2018-08-09T09:33:33.526Z,1000.30
2018-08-09T09:34:33.554Z,1000.21
2018-08-09T09:35:33.580Z,1000.18
2018-08-09T09:36:33.609Z,1000.17
2018-08-09T09:37:33.633Z,1000.18
2018-08-09T09:38:33.660Z,1000.19
2018-08-09T09:39:33.685Z,1000.19
2018-08-09T09:40:33.718Z,1000.15
2018-08-09T09:41:33.747Z,1000.02
2018-08-09T09:42:33.766Z,999.93
2018-08-09T09:43:33.808Z,999.87
2018-08-09T09:44:33.822Z,999.85
2018-08-09T09:45:33.851Z,999.87
2018-08-09T09:46:33.875Z,999.89
2018-08-09T09:47:33.904Z,999.87
2018-08-09T09:48:33.933Z,999.98
2018-08-09T09:49:33.957Z,999.97
2018-08-09T09:50:33.987Z,999.75
2018-08-09T09:51:34.015Z,999.72
2018-08-09T09:52:34.050Z,999.62
2018-08-09T09:53:34.067Z,999.62
2018-08-09T09:54:34.092Z,999.61
2018-08-09T09:55:34.117Z,999.53
2018-08-09T09:56:34.147Z,999.55
2018-08-09T09:57:34.180Z,999.61
2018-08-09T09:58:34.202Z,999.73
2018-08-09T09:59:34.228Z,999.83
2018-08-09T10:00:34.254Z,999.76
2018-08-09T10:01:34.280Z,999.78
2018-08-09T10:02:34.322Z,999.67
2018-08-09T10:03:34.466Z,999.64
2018-08-09T10:04:34.372Z,999.71
2018-08-09T10:05:34.391Z,999.73
2018-08-09T10:06:34.413Z,999.72
2018-08-09T10:07:34.443Z,999.84
2018-08-09T10:08:34.472Z,999.84
2018-08-09T10:09:34.499Z,999.82
2018-08-09T10:10:34.593Z,999.83
2018-08-09T10:11:34.558Z,999.71
2018-08-09T10:12:34.577Z,999.81
2018-08-09T10:13:34.604Z,999.81
2018-08-09T10:14:34.635Z,999.79
2018-08-09T10:15:34.661Z,999.80
2018-08-09T10:16:34.687Z,999.63
2018-08-09T10:17:34.729Z,999.41
2018-08-09T10:18:34.746Z,999.38
2018-08-09T10:19:34.787Z,999.25
2018-08-09T10:20:34.799Z,999.19
2018-08-09T10:21:34.827Z,999.26
2018-08-09T10:22:34.855Z,999.22
2018-08-09T10:23:34.922Z,999.11
2018-08-09T10:24:34.908Z,999.02
2018-08-09T10:25:34.938Z,999.01
2018-08-09T10:26:34.966Z,999.07
2018-08-09T10:27:34.995Z,999.04
2018-08-09T10:28:35.018Z,999.07
2018-08-09T10:29:35.052Z,999.01
2018-08-09T10:30:35.077Z,998.95
2018-08-09T10:31:35.101Z,998.84
2018-08-09T10:32:35.127Z,998.81
2018-08-09T10:33:35.153Z,998.79
2018-08-09T10:34:35.186Z,998.88
2018-08-09T10:35:35.244Z,998.87
2018-08-09T10:36:35.243Z,998.88
2018-08-09T10:37:35.262Z,998.77
2018-08-09T10:38:35.288Z,998.69
2018-08-09T10:39:35.321Z,998.65
2018-08-09T10:40:35.339Z,998.61
2018-08-09T10:41:35.372Z,998.57
2018-08-09T10:42:35.399Z,998.59
2018-08-09T10:43:35.425Z,998.55
2018-08-09T10:44:35.453Z,998.60
2018-08-09T10:45:35.474Z,998.56
2018-08-09T10:46:35.502Z,998.52
2018-08-09T10:47:35.529Z,998.43
2018-08-09T10:48:35.555Z,998.37
2018-08-09T10:49:35.589Z,998.32
2018-08-09T10:50:35.608Z,998.28
2018-08-09T10:51:35.633Z,998.27
2018-08-09T10:52:35.663Z,998.20
2018-08-09T10:53:35.690Z,998.13
2018-08-09T10:54:35.716Z,998.13
2018-08-09T10:55:35.822Z,998.22
2018-08-09T10:56:35.769Z,998.27
2018-08-09T10:57:35.795Z,998.28
2018-08-09T10:58:35.825Z,998.22
2018-08-09T10:59:35.850Z,998.16
2018-08-09T11:00:35.875Z,998.08
2018-08-09T11:01:35.902Z,998.07
2018-08-09T11:02:35.928Z,998.12
2018-08-09T11:03:35.954Z,998.12
2018-08-09T11:04:35.989Z,998.17
2018-08-09T11:05:36.015Z,998.16
2018-08-09T11:06:36.032Z,998.12
2018-08-09T11:07:36.059Z,998.05
2018-08-09T11:08:36.100Z,998.00
2018-08-09T11:09:36.122Z,997.99
2018-08-09T11:10:36.137Z,997.93
2018-08-09T11:11:36.164Z,997.82
2018-08-09T11:12:36.193Z,997.80
2018-08-09T11:13:36.219Z,997.80
2018-08-09T11:14:36.247Z,997.75
2018-08-09T11:15:36.272Z,997.73
2018-08-09T11:16:36.299Z,997.74
2018-08-09T11:17:36.324Z,997.75
2018-08-09T11:18:36.350Z,997.71
2018-08-09T11:19:36.374Z,997.76
2018-08-09T11:20:36.403Z,997.75
2018-08-09T11:21:36.437Z,997.72
2018-08-09T11:22:36.456Z,997.62
2018-08-09T11:23:36.513Z,997.50
2018-08-09T11:24:36.505Z,997.41
2018-08-09T11:25:36.534Z,997.38
2018-08-09T11:26:36.563Z,997.31
2018-08-09T11:27:36.587Z,997.29
2018-08-09T11:28:36.611Z,997.24
2018-08-09T11:29:36.645Z,997.26
2018-08-09T11:30:36.666Z,997.28
2018-08-09T11:31:36.694Z,997.37
2018-08-09T11:32:36.721Z,997.33
2018-08-09T11:33:36.748Z,997.34
2018-08-09T11:34:36.778Z,997.34
2018-08-09T11:35:36.800Z,997.32
2018-08-09T11:36:36.825Z,997.33
2018-08-09T11:37:36.853Z,997.31
2018-08-09T11:38:36.884Z,997.37
2018-08-09T11:39:36.908Z,997.35
2018-08-09T11:40:36.931Z,997.18
2018-08-09T11:41:36.961Z,997.14
2018-08-09T11:42:36.989Z,996.98
2018-08-09T11:43:37.016Z,996.96
2018-08-09T11:44:37.045Z,996.88
2018-08-09T11:45:37.068Z,996.84
2018-08-09T11:46:37.093Z,996.85
2018-08-09T11:47:37.120Z,996.86
2018-08-09T11:48:37.147Z,996.91
2018-08-09T11:49:37.185Z,996.82
2018-08-09T11:50:37.202Z,996.78
2018-08-09T11:51:37.233Z,996.84
2018-08-09T11:52:37.255Z,996.80
2018-08-09T11:53:37.296Z,996.76
2018-08-09T11:54:37.313Z,996.79
2018-08-09T11:55:37.336Z,996.72
2018-08-09T11:56:37.433Z,996.71
2018-08-09T11:57:37.390Z,996.75
2018-08-09T11:58:37.418Z,996.75
2018-08-09T11:59:37.448Z,996.81
2018-08-09T12:00:37.471Z,996.75
2018-08-09T12:01:37.542Z,996.71
2018-08-09T12:02:37.525Z,996.77
2018-08-09T12:03:37.555Z,996.78
2018-08-09T12:04:37.635Z,996.79
2018-08-09T12:05:37.607Z,996.70
2018-08-09T12:06:37.645Z,996.61
2018-08-09T12:07:37.661Z,996.53
2018-08-09T12:08:37.690Z,996.50
2018-08-09T12:09:37.716Z,996.40
2018-08-09T12:10:37.742Z,996.39